Rockport, TX

11:22 AM CDT on March 30, 2015 (GMT -0500)
Palm Harbor-Buddy's Place | | Change Station
CLOSE
Current Station
Personal Weather Station
Location: Rockport, TX
Elevation: 10 ft
Nearby Weather Stations

Elev 10 ft 27.97 °N, 97.09 °W | Updated 2 minutes ago

Overcast
Overcast
72.2 °F
Feels Like 72.2 °F
N
7.0
Wind Variable Wind from SSE
Gusts 7.0 mph

Today
High -- | Low -- °F
--% Chance of Precip.
Yesterday
High -- | Low -- °F
Precip. -- in
7:20 AM 7:44 PM
Waxing Gibbous, 80% visible
Pressure 30.20 in
Visibility 10.0 miles
Clouds Few 1300 ft
Mostly Cloudy 1900 ft
Overcast 3700 ft
Dew Point 69 °F
Humidity 90%
Rainfall 0.00 in
Snow Depth Not available.
UV 2 out of 12
Pollen 11.20 out of 12
Air Quality Not available.
Flu Activity Not available.
METAR KRKP 301553Z AUTO 15008KT 10SM FEW013 BKN019 OVC037 24/19 A3019 RMK AO2 SLP225 T02390194

More Conditions Fewer Conditions

Pressure 30.20 in
Visibility 10.0 miles
Clouds Few 1300 ft
Mostly Cloudy 1900 ft
Overcast 3700 ft
Dew Point 69 °F
Humidity 90%
Rainfall 0.00 in
Snow Depth Not available.
UV 2 out of 12
Pollen 11.20 out of 12
Air Quality Not available.
Flu Activity Not available.
METAR KRKP 301553Z AUTO 15008KT 10SM FEW013 BKN019 OVC037 24/19 A3019 RMK AO2 SLP225 T02390194

More Conditions Fewer Conditions

10-Day Weather Forecast

Almanac

Astronomy

Mar. 30, 2015 Rise Set
Actual Time
Civil Twilight
Nautical Twilight
Astronomical Twilight
Moon
Length of Visible Light
Length of Day
Tomorrow will be .
, % of the Moon is Illuminated

Today's Extremes

State Highs State Lows

Community

WunderPhotos

Upload Photos

1,809,532 photos uploaded!

WunderBlogs® & News

Nearby

Air Quality

  Air Quality AQ Index Pollutant
Not available.

Snow Depth

Station Depth Elevation

Earthquake Activity

City Distance Mag. Time & Date
Minimum magnitude displayed is 2.5.

Coastal Water Temperatures

Place Temperature

Stations

Nearby Weather Stations

Station Location Temp. Windchill Dew Point Humidity Wind Precip. Elev Updated Type